createdAt,value
2023-05-08T00:00:28.893Z,11.6
2023-05-08T00:01:37.210Z,11.6
2023-05-08T00:02:45.580Z,11.6
2023-05-08T00:03:54.387Z,11
2023-05-08T00:05:02.402Z,11
2023-05-08T00:06:10.710Z,11
2023-05-08T00:07:19.228Z,11.1
2023-05-08T00:08:27.542Z,11.1
2023-05-08T00:09:35.869Z,11.1
2023-05-08T00:10:44.386Z,11.4
2023-05-08T00:11:52.704Z,11.4
2023-05-08T00:13:01.121Z,11.4
2023-05-08T00:14:09.534Z,11.4
2023-05-08T00:15:17.860Z,11.4
2023-05-08T00:16:26.187Z,11.4
2023-05-08T00:17:34.698Z,11.1
2023-05-08T00:18:43.021Z,11.1
2023-05-08T00:19:51.355Z,11.1
2023-05-08T00:20:59.872Z,10.8
2023-05-08T00:22:08.178Z,10.8
2023-05-08T00:23:16.485Z,10.8
2023-05-08T00:24:25.030Z,10.4
2023-05-08T00:25:33.346Z,10.4
2023-05-08T00:26:41.649Z,10.4
2023-05-08T00:27:50.158Z,10.3
2023-05-08T00:28:58.504Z,10.3
2023-05-08T00:30:06.811Z,10.3
2023-05-08T00:31:15.370Z,10.7
2023-05-08T00:32:23.684Z,10.7
2023-05-08T00:33:31.951Z,10.7
2023-05-08T00:34:40.488Z,10.5
2023-05-08T00:35:48.834Z,10.5
2023-05-08T00:36:57.124Z,10.5
2023-05-08T00:38:05.652Z,9.8
2023-05-08T00:39:13.952Z,9.8
2023-05-08T00:40:22.326Z,9.8
2023-05-08T00:41:30.796Z,9.9
2023-05-08T00:42:39.096Z,9.9
2023-05-08T00:43:47.403Z,9.9
2023-05-08T00:44:55.925Z,10.2
2023-05-08T00:46:04.264Z,10.2
2023-05-08T00:47:12.566Z,10.2
2023-05-08T00:48:21.070Z,9.8
2023-05-08T00:49:29.381Z,9.8
2023-05-08T00:50:37.704Z,9.8
2023-05-08T00:51:46.216Z,9.8
2023-05-08T00:52:54.518Z,9.8
2023-05-08T00:54:02.856Z,9.8
2023-05-08T00:55:11.376Z,9.8
2023-05-08T00:56:19.698Z,9.8
2023-05-08T00:57:28.002Z,9.8
2023-05-08T00:58:36.523Z,9.9
2023-05-08T00:59:44.855Z,9.9
2023-05-08T01:00:53.162Z,9.9
2023-05-08T01:02:01.744Z,10.3
2023-05-08T01:03:10.817Z,10.3
2023-05-08T01:04:18.318Z,10.3
2023-05-08T01:05:26.825Z,10.2
2023-05-08T01:06:35.133Z,10.2
2023-05-08T01:07:43.443Z,10.2
2023-05-08T01:08:51.949Z,10.1
2023-05-08T01:10:00.266Z,10.1
2023-05-08T01:11:08.578Z,10.1
2023-05-08T01:12:17.105Z,8.9
2023-05-08T01:13:25.467Z,8.9
2023-05-08T01:14:33.730Z,8.9
2023-05-08T01:15:42.278Z,9.8
2023-05-08T01:16:50.562Z,9.8
2023-05-08T01:17:58.926Z,9.8
2023-05-08T01:19:07.421Z,9.4
2023-05-08T01:20:15.880Z,9.4
2023-05-08T01:21:24.041Z,9.4
2023-05-08T01:22:32.578Z,9.8
2023-05-08T01:23:40.887Z,9.8
2023-05-08T01:24:49.210Z,9.8
2023-05-08T01:25:57.714Z,9.9
2023-05-08T01:27:06.033Z,9.9
2023-05-08T01:28:14.340Z,9.9
2023-05-08T01:29:22.854Z,9.6
2023-05-08T01:30:31.163Z,9.6
2023-05-08T01:31:39.485Z,9.6
2023-05-08T01:32:48.041Z,9.4
2023-05-08T01:33:56.326Z,9.4
2023-05-08T01:35:04.755Z,9.4
2023-05-08T01:36:13.145Z,9.8
2023-05-08T01:37:21.454Z,9.8
2023-05-08T01:38:29.765Z,9.8
2023-05-08T01:39:38.266Z,10.1
2023-05-08T01:40:46.595Z,10.1
2023-05-08T01:41:54.936Z,10.1
2023-05-08T01:43:03.424Z,10.5
2023-05-08T01:44:11.715Z,10.5
2023-05-08T01:45:20.061Z,10.5
2023-05-08T01:46:28.607Z,10.4
2023-05-08T01:47:36.905Z,10.4
2023-05-08T01:48:45.172Z,10.4
2023-05-08T01:49:53.680Z,9.9
2023-05-08T01:51:02.013Z,9.9
2023-05-08T01:52:10.325Z,9.9
2023-05-08T01:53:18.839Z,10.3
2023-05-08T01:54:27.178Z,10.3
2023-05-08T01:55:35.499Z,10.3
2023-05-08T01:56:44.033Z,10.6
2023-05-08T01:57:52.342Z,10.6
2023-05-08T01:59:00.648Z,10.6
2023-05-08T02:00:09.183Z,10.5
2023-05-08T02:01:17.583Z,10.5
2023-05-08T02:02:25.908Z,10.5
2023-05-08T02:03:34.422Z,10.4
2023-05-08T02:04:42.698Z,10.4
2023-05-08T02:05:50.997Z,10.4
2023-05-08T02:06:59.543Z,10.5
2023-05-08T02:08:07.805Z,10.5
2023-05-08T02:09:16.134Z,10.5
2023-05-08T02:10:24.662Z,10.8
2023-05-08T02:11:32.973Z,10.8
2023-05-08T02:12:41.293Z,10.8
2023-05-08T02:13:49.780Z,10.9
2023-05-08T02:14:58.120Z,10.9
2023-05-08T02:16:06.470Z,10.9
2023-05-08T02:17:14.946Z,10.9
2023-05-08T02:18:23.269Z,10.9
2023-05-08T02:19:31.569Z,10.9
2023-05-08T02:20:40.089Z,10.7
2023-05-08T02:21:48.378Z,10.7
2023-05-08T02:22:56.704Z,10.7
2023-05-08T02:24:05.193Z,11.3
2023-05-08T02:25:13.507Z,11.3
2023-05-08T02:26:21.822Z,11.3
2023-05-08T02:27:30.342Z,11.6
2023-05-08T02:28:38.632Z,11.6
2023-05-08T02:29:46.957Z,11.6
2023-05-08T02:30:55.469Z,11.4
2023-05-08T02:32:03.856Z,11.4
2023-05-08T02:33:12.139Z,11.4
2023-05-08T02:34:20.609Z,11.6
2023-05-08T02:35:28.926Z,11.6
2023-05-08T02:36:37.237Z,11.6
2023-05-08T02:37:45.747Z,11.7
2023-05-08T02:38:54.132Z,11.7
2023-05-08T02:40:02.437Z,11.7
2023-05-08T02:41:10.926Z,12
2023-05-08T02:42:19.243Z,12
2023-05-08T02:43:27.557Z,12
2023-05-08T02:44:36.079Z,11.6
2023-05-08T02:45:44.427Z,11.6
2023-05-08T02:46:52.704Z,11.6
2023-05-08T02:48:01.285Z,12
2023-05-08T02:49:09.557Z,12
2023-05-08T02:50:17.852Z,12
2023-05-08T02:51:26.359Z,12.1
2023-05-08T02:52:34.688Z,12.1
2023-05-08T02:53:43.005Z,12.1
2023-05-08T02:54:51.530Z,11.7
2023-05-08T02:55:59.826Z,11.7
2023-05-08T02:57:08.138Z,11.7
2023-05-08T02:58:16.650Z,11.9
2023-05-08T02:59:24.962Z,11.9
2023-05-08T03:00:33.283Z,11.9
2023-05-08T03:01:41.867Z,12.2
2023-05-08T03:02:50.168Z,12.2
2023-05-08T03:03:58.512Z,12.2
2023-05-08T03:05:06.980Z,12.2
2023-05-08T03:06:15.292Z,12.2
2023-05-08T03:07:23.612Z,12.2
2023-05-08T03:08:32.125Z,12.4
2023-05-08T03:09:40.457Z,12.4
2023-05-08T03:10:48.793Z,12.4
2023-05-08T03:11:57.294Z,12
2023-05-08T03:13:05.615Z,12
2023-05-08T03:14:13.905Z,12
2023-05-08T03:15:22.439Z,12.5
2023-05-08T03:16:30.840Z,12.5
2023-05-08T03:17:39.100Z,12.5
2023-05-08T03:18:47.574Z,13.1
2023-05-08T03:19:55.907Z,13.1
2023-05-08T03:21:04.206Z,13.1
2023-05-08T03:22:12.744Z,12
2023-05-08T03:23:21.043Z,12
2023-05-08T03:24:29.366Z,12
2023-05-08T03:25:37.876Z,13.5
2023-05-08T03:26:46.210Z,13.5
2023-05-08T03:27:54.489Z,13.5
2023-05-08T03:29:03.000Z,12.4
2023-05-08T03:30:11.452Z,12.4
2023-05-08T03:31:19.656Z,12.4
2023-05-08T03:32:28.178Z,11.9
2023-05-08T03:33:36.438Z,11.9
2023-05-08T03:34:44.757Z,11.9
2023-05-08T03:35:53.268Z,12.6
2023-05-08T03:37:01.574Z,12.6
2023-05-08T03:38:09.907Z,12.6
2023-05-08T03:39:18.414Z,13.4
2023-05-08T03:40:26.756Z,13.4
2023-05-08T03:41:35.064Z,13.4
2023-05-08T03:42:43.704Z,13.3
2023-05-08T03:43:51.894Z,13.3
2023-05-08T03:45:00.218Z,13.3
2023-05-08T03:46:08.820Z,13.2
2023-05-08T03:47:17.071Z,13.2
2023-05-08T03:48:25.359Z,13.2
2023-05-08T03:49:33.884Z,13.3
2023-05-08T03:50:42.195Z,13.3
2023-05-08T03:51:50.486Z,13.3
2023-05-08T03:52:59.014Z,13
2023-05-08T03:54:07.311Z,13
2023-05-08T03:55:15.630Z,13
2023-05-08T03:56:25.895Z,12.5
2023-05-08T03:57:32.455Z,12.5
2023-05-08T03:58:40.844Z,12.5
2023-05-08T03:59:49.284Z,13.3
2023-05-08T04:00:57.596Z,13.3
2023-05-08T04:02:05.934Z,13.3
2023-05-08T04:03:14.433Z,13.2
2023-05-08T04:04:22.731Z,13.2
2023-05-08T04:05:31.077Z,13.2
2023-05-08T04:06:49.087Z,13
2023-05-08T04:07:47.962Z,13
2023-05-08T04:08:56.296Z,13
2023-05-08T04:10:04.834Z,12.5
2023-05-08T04:11:13.129Z,12.5
2023-05-08T04:12:21.450Z,12.5
2023-05-08T04:13:29.982Z,12.8
2023-05-08T04:14:38.293Z,12.8
2023-05-08T04:15:46.589Z,12.8
2023-05-08T04:16:55.135Z,13.7
2023-05-08T04:18:03.464Z,13.7
2023-05-08T04:19:11.759Z,13.7
2023-05-08T04:20:20.278Z,13.1
2023-05-08T04:21:28.614Z,13.1
2023-05-08T04:22:36.927Z,13.1
2023-05-08T04:23:45.456Z,12.5
2023-05-08T04:24:53.773Z,12.5
2023-05-08T04:26:02.082Z,12.5
2023-05-08T04:27:10.574Z,14
2023-05-08T04:28:18.879Z,14
2023-05-08T04:29:27.253Z,14
2023-05-08T04:30:35.813Z,13.3
2023-05-08T04:31:44.094Z,13.3
2023-05-08T04:32:52.484Z,13.3
2023-05-08T04:34:00.928Z,13.4
2023-05-08T04:35:09.298Z,13.4
2023-05-08T04:36:17.625Z,13.4
2023-05-08T04:37:26.137Z,13.8
2023-05-08T04:38:34.458Z,13.8
2023-05-08T04:39:43.713Z,13.8
2023-05-08T04:40:51.376Z,13.8
2023-05-08T04:41:59.703Z,13.8
2023-05-08T04:43:08.044Z,13.8
2023-05-08T04:44:16.599Z,14.2
2023-05-08T04:45:24.907Z,14.2
2023-05-08T04:46:33.269Z,14.2
2023-05-08T04:47:41.840Z,14.3
2023-05-08T04:48:50.137Z,14.3
2023-05-08T04:49:59.525Z,14.3
2023-05-08T04:51:06.972Z,13.6
2023-05-08T04:52:15.312Z,13.6
2023-05-08T04:53:23.631Z,13.6
2023-05-08T04:54:32.166Z,13.4
2023-05-08T04:55:40.489Z,13.4
2023-05-08T04:56:48.800Z,13.4
2023-05-08T04:57:57.328Z,13.4
2023-05-08T04:59:05.640Z,13.4
2023-05-08T05:00:13.937Z,13.4
2023-05-08T05:01:22.469Z,13.9
2023-05-08T05:02:30.819Z,13.9
2023-05-08T05:03:39.122Z,13.9
2023-05-08T05:04:47.630Z,13.4
2023-05-08T05:05:55.920Z,13.4
2023-05-08T05:07:04.214Z,13.4
2023-05-08T05:08:12.747Z,14.4
2023-05-08T05:09:21.080Z,14.4
2023-05-08T05:10:29.421Z,14.4
2023-05-08T05:11:37.957Z,13.9
2023-05-08T05:12:46.268Z,13.9
2023-05-08T05:13:54.598Z,13.9
2023-05-08T05:15:03.129Z,12.5
2023-05-08T05:16:11.468Z,12.5
2023-05-08T05:17:19.742Z,12.5
2023-05-08T05:18:28.318Z,13.5
2023-05-08T05:19:36.599Z,13.5
2023-05-08T05:20:44.896Z,13.5
2023-05-08T05:21:53.422Z,13.2
2023-05-08T05:23:01.776Z,13.2
2023-05-08T05:24:10.108Z,13.2
2023-05-08T05:25:18.607Z,12.7
2023-05-08T05:26:27.045Z,12.7
2023-05-08T05:27:35.363Z,12.7
2023-05-08T05:28:43.982Z,12.7
2023-05-08T05:29:52.212Z,12.7
2023-05-08T05:31:00.543Z,12.7
2023-05-08T05:32:09.026Z,12.6
2023-05-08T05:33:17.357Z,12.6
2023-05-08T05:34:25.868Z,12.6
2023-05-08T05:35:34.183Z,13
2023-05-08T05:36:42.475Z,13
2023-05-08T05:37:50.791Z,13
2023-05-08T05:38:59.382Z,13.3
2023-05-08T05:40:07.684Z,13.3
2023-05-08T05:41:16.007Z,13.3
2023-05-08T05:42:24.524Z,13.5
2023-05-08T05:43:32.858Z,13.5
2023-05-08T05:44:41.184Z,13.5
2023-05-08T05:45:49.729Z,12.9
2023-05-08T05:46:58.050Z,12.9
2023-05-08T05:48:06.426Z,12.9
2023-05-08T05:49:14.868Z,12.9
2023-05-08T05:50:23.274Z,12.9
2023-05-08T05:51:31.564Z,12.9
2023-05-08T05:52:40.154Z,13.4
2023-05-08T05:53:48.498Z,13.4
2023-05-08T05:54:56.851Z,13.4
2023-05-08T05:56:05.342Z,13.5
2023-05-08T05:57:13.674Z,13.5
2023-05-08T05:58:22.015Z,13.5
2023-05-08T05:59:30.563Z,13.3
2023-05-08T06:00:38.865Z,13.3
2023-05-08T06:01:47.205Z,13.3
2023-05-08T06:02:55.850Z,13.9
2023-05-08T06:04:04.227Z,13.9
2023-05-08T06:05:12.689Z,13.9
2023-05-08T06:06:21.055Z,13.7
2023-05-08T06:07:29.386Z,13.7
2023-05-08T06:08:37.700Z,13.7
2023-05-08T06:09:46.262Z,12.8
2023-05-08T06:10:54.605Z,12.8
2023-05-08T06:12:02.910Z,12.8
2023-05-08T06:13:11.532Z,13
2023-05-08T06:14:19.826Z,13
2023-05-08T06:15:28.099Z,13
2023-05-08T06:16:36.631Z,13.2
2023-05-08T06:17:44.998Z,13.2
2023-05-08T06:18:53.307Z,13.2
2023-05-08T06:20:01.833Z,12.7
2023-05-08T06:21:10.207Z,12.7
2023-05-08T06:22:18.564Z,12.7
2023-05-08T06:23:27.179Z,13.4
2023-05-08T06:24:35.400Z,13.4
2023-05-08T06:25:43.725Z,13.4
2023-05-08T06:26:52.287Z,13.7
2023-05-08T06:28:00.592Z,13.7
2023-05-08T06:29:08.933Z,13.7
2023-05-08T06:30:17.444Z,13.4
2023-05-08T06:31:25.856Z,13.4
2023-05-08T06:32:34.184Z,13.4
2023-05-08T06:33:42.678Z,12.7
2023-05-08T06:34:50.982Z,12.7
2023-05-08T06:35:59.310Z,12.7
2023-05-08T06:37:07.883Z,13.6
2023-05-08T06:38:16.293Z,13.6
2023-05-08T06:39:24.532Z,13.6
2023-05-08T06:40:33.056Z,13.8
2023-05-08T06:41:41.445Z,13.8
2023-05-08T06:42:49.748Z,13.8
2023-05-08T06:43:58.256Z,13.3
2023-05-08T06:45:06.587Z,13.3
2023-05-08T06:46:14.924Z,13.3
2023-05-08T06:47:23.473Z,14.1
2023-05-08T06:48:31.986Z,14.1
2023-05-08T06:49:40.279Z,14.1
2023-05-08T06:50:48.802Z,13.5
2023-05-08T06:51:57.929Z,13.5
2023-05-08T06:53:05.463Z,13.5
2023-05-08T06:54:14.110Z,13.3
2023-05-08T06:55:22.369Z,13.3
2023-05-08T06:56:30.655Z,13.3
2023-05-08T06:57:39.215Z,14.1
2023-05-08T06:58:56.909Z,14.1
2023-05-08T06:59:55.886Z,14.1
2023-05-08T07:01:04.436Z,13.8
2023-05-08T07:02:12.789Z,13.8
2023-05-08T07:03:21.121Z,13.8
2023-05-08T07:04:31.498Z,14.3
2023-05-08T07:05:37.941Z,14.3
2023-05-08T07:06:46.271Z,14.3
2023-05-08T07:07:54.797Z,14.4
2023-05-08T07:09:03.096Z,14.4
2023-05-08T07:10:11.528Z,14.4
2023-05-08T07:11:19.935Z,12.9
2023-05-08T07:12:28.257Z,12.9
2023-05-08T07:13:36.614Z,12.9
2023-05-08T07:14:45.158Z,13.6
2023-05-08T07:15:53.496Z,13.6
2023-05-08T07:17:01.806Z,13.6
2023-05-08T07:18:10.329Z,13.4
2023-05-08T07:19:19.880Z,13.4
2023-05-08T07:20:26.941Z,13.4
2023-05-08T07:21:35.458Z,13.3
2023-05-08T07:22:43.790Z,13.3
2023-05-08T07:23:52.140Z,13.3
2023-05-08T07:25:00.663Z,12.8
2023-05-08T07:26:09.053Z,12.8
2023-05-08T07:27:17.326Z,12.8
2023-05-08T07:28:25.898Z,13
2023-05-08T07:29:34.230Z,13
2023-05-08T07:30:42.542Z,13
2023-05-08T07:31:51.126Z,13.3
2023-05-08T07:32:59.442Z,13.3
2023-05-08T07:34:07.736Z,13.3
2023-05-08T07:35:16.484Z,13.3
2023-05-08T07:36:24.604Z,13.3
2023-05-08T07:37:32.952Z,13.3
2023-05-08T07:38:41.504Z,12.9
2023-05-08T07:39:49.818Z,12.9
2023-05-08T07:40:58.174Z,12.9
2023-05-08T07:42:26.626Z,12.7
2023-05-08T07:43:34.903Z,12.7
2023-05-08T07:44:53.493Z,12.7
2023-05-08T07:45:51.753Z,13.6
2023-05-08T07:47:00.113Z,13.6
2023-05-08T07:48:08.519Z,13.6
2023-05-08T07:49:16.959Z,13.7
2023-05-08T07:50:25.286Z,13.7
2023-05-08T07:51:33.656Z,13.7
2023-05-08T07:52:42.713Z,12.4
2023-05-08T07:53:51.123Z,12.4
2023-05-08T07:54:59.418Z,12.4
2023-05-08T07:56:07.950Z,11.6
2023-05-08T07:57:16.274Z,11.6
2023-05-08T07:58:24.634Z,11.6
2023-05-08T07:59:33.140Z,11.6
2023-05-08T08:00:41.443Z,11.6
2023-05-08T08:01:49.887Z,11.6
2023-05-08T08:02:58.611Z,11.2
2023-05-08T08:04:06.838Z,11.2
2023-05-08T08:05:15.385Z,11.2
2023-05-08T08:06:23.602Z,12
2023-05-08T08:07:31.979Z,12
2023-05-08T08:08:40.292Z,12
2023-05-08T08:09:48.816Z,11.1
2023-05-08T08:10:57.138Z,11.1
2023-05-08T08:12:05.489Z,11.1
2023-05-08T08:13:14.101Z,12.4
2023-05-08T08:14:22.503Z,12.4
2023-05-08T08:15:30.749Z,12.4
2023-05-08T08:16:39.324Z,12.7
2023-05-08T08:17:47.649Z,12.7
2023-05-08T08:18:55.922Z,12.7
2023-05-08T08:20:04.461Z,11.5
2023-05-08T08:21:12.811Z,11.5
2023-05-08T08:22:21.104Z,11.5
2023-05-08T08:23:29.650Z,11.4
2023-05-08T08:24:37.973Z,11.4
2023-05-08T08:25:46.320Z,11.4
2023-05-08T08:26:54.870Z,11.4
2023-05-08T08:28:03.185Z,11.4
2023-05-08T08:29:11.506Z,11.4
2023-05-08T08:30:20.181Z,11.6
2023-05-08T08:31:28.442Z,11.6
2023-05-08T08:32:36.709Z,11.6
2023-05-08T08:33:45.216Z,11.7
2023-05-08T08:34:53.537Z,11.7
2023-05-08T08:36:01.853Z,11.7
2023-05-08T08:37:10.413Z,11.3
2023-05-08T08:38:18.719Z,11.3
2023-05-08T08:39:27.031Z,11.3
2023-05-08T08:40:35.557Z,11.8
2023-05-08T08:41:43.887Z,11.8
2023-05-08T08:42:52.201Z,11.8
2023-05-08T08:44:00.738Z,12.4
2023-05-08T08:45:09.078Z,12.4
2023-05-08T08:46:17.531Z,12.4
2023-05-08T08:47:25.928Z,11
2023-05-08T08:48:34.261Z,11
2023-05-08T08:49:42.563Z,11
2023-05-08T08:50:51.082Z,11.8
2023-05-08T08:51:59.390Z,11.8
2023-05-08T08:53:07.753Z,11.8
2023-05-08T08:54:16.267Z,11.6
2023-05-08T08:55:24.568Z,11.6
2023-05-08T08:56:32.923Z,11.6
2023-05-08T08:57:41.468Z,11.3
2023-05-08T08:58:49.791Z,11.3
2023-05-08T08:59:58.090Z,11.3
2023-05-08T09:01:06.618Z,11.2
2023-05-08T09:02:15.185Z,11.2
2023-05-08T09:03:23.418Z,11.2
2023-05-08T09:04:31.901Z,10.1
2023-05-08T09:05:40.204Z,10.1
2023-05-08T09:06:48.516Z,10.1
2023-05-08T09:07:57.050Z,10.8
2023-05-08T09:09:05.357Z,10.8
2023-05-08T09:10:13.658Z,10.8
2023-05-08T09:11:22.183Z,11.2
2023-05-08T09:12:30.504Z,11.2
2023-05-08T09:13:38.954Z,11.2
2023-05-08T09:14:47.393Z,10.8
2023-05-08T09:15:55.729Z,10.8
2023-05-08T09:17:04.028Z,10.8
2023-05-08T09:18:12.694Z,10.1
2023-05-08T09:19:23.383Z,10.1
2023-05-08T09:20:29.641Z,10.1
2023-05-08T09:21:38.225Z,10.8
2023-05-08T09:22:46.546Z,10.8
2023-05-08T09:23:54.918Z,10.8
2023-05-08T09:25:03.467Z,10.4
2023-05-08T09:26:11.805Z,10.4
2023-05-08T09:27:20.137Z,10.4
2023-05-08T09:28:28.651Z,10.3
2023-05-08T09:29:36.955Z,10.3
2023-05-08T09:30:45.282Z,10.3
2023-05-08T09:31:53.890Z,9.2
2023-05-08T09:33:02.780Z,9.2
2023-05-08T09:34:11.108Z,9.2
2023-05-08T09:35:19.529Z,10.5
2023-05-08T09:36:27.980Z,10.5
2023-05-08T09:37:36.387Z,10.5
2023-05-08T09:38:44.926Z,9.8
2023-05-08T09:39:53.254Z,9.8
2023-05-08T09:41:01.567Z,9.8
2023-05-08T09:42:10.086Z,9.2
2023-05-08T09:43:18.401Z,9.2
2023-05-08T09:44:26.706Z,9.2
2023-05-08T09:45:35.450Z,9.4
2023-05-08T09:46:43.660Z,9.4
2023-05-08T09:47:52.024Z,9.4
2023-05-08T09:49:00.531Z,10
2023-05-08T09:50:08.962Z,10
2023-05-08T09:51:17.184Z,10
2023-05-08T09:52:25.680Z,10.4
2023-05-08T09:53:34.020Z,10.4
2023-05-08T09:54:42.349Z,10.4
2023-05-08T09:55:50.876Z,8.7
2023-05-08T09:56:59.190Z,8.7
2023-05-08T09:58:07.546Z,8.7
2023-05-08T09:59:16.074Z,8.4
2023-05-08T10:00:24.390Z,8.4
2023-05-08T10:01:32.771Z,8.4
2023-05-08T10:02:41.258Z,8.4
2023-05-08T10:03:49.535Z,8.4
2023-05-08T10:04:57.867Z,8.4
2023-05-08T10:06:06.502Z,8.8
2023-05-08T10:07:14.689Z,8.8
2023-05-08T10:08:23.036Z,8.8
2023-05-08T10:09:39.250Z,8.4
2023-05-08T10:10:39.886Z,8.4
2023-05-08T10:11:48.206Z,8.4
2023-05-08T10:12:56.793Z,8
2023-05-08T10:14:05.045Z,8
2023-05-08T10:15:13.344Z,8
2023-05-08T10:16:21.883Z,7.9
2023-05-08T10:17:30.205Z,7.9
2023-05-08T10:18:38.518Z,7.9
2023-05-08T10:19:47.064Z,7.5
2023-05-08T10:20:55.372Z,7.5
2023-05-08T10:22:03.831Z,7.5
2023-05-08T10:23:12.260Z,7.7
2023-05-08T10:24:20.619Z,7.7
2023-05-08T10:25:28.901Z,7.7
2023-05-08T10:26:37.424Z,7.8
2023-05-08T10:27:45.745Z,7.8
2023-05-08T10:28:54.068Z,7.8
2023-05-08T10:30:02.604Z,8
2023-05-08T10:31:10.970Z,8
2023-05-08T10:32:19.279Z,8
2023-05-08T10:33:28.993Z,8
2023-05-08T10:34:36.110Z,8
2023-05-08T10:35:44.440Z,8
2023-05-08T10:36:54.102Z,7.5
2023-05-08T10:38:01.488Z,7.5
2023-05-08T10:39:09.675Z,7.5
2023-05-08T10:40:18.226Z,8.2
2023-05-08T10:41:26.502Z,8.2
2023-05-08T10:42:34.834Z,8.2
2023-05-08T10:43:43.354Z,7.9
2023-05-08T10:44:51.651Z,7.9
2023-05-08T10:45:59.974Z,7.9
2023-05-08T10:47:08.508Z,8
2023-05-08T10:48:16.823Z,8
2023-05-08T10:49:25.141Z,8
2023-05-08T10:50:33.644Z,7.6
2023-05-08T10:51:41.965Z,7.6
2023-05-08T10:52:50.284Z,7.6
2023-05-08T10:53:58.820Z,7
2023-05-08T10:55:07.128Z,7
2023-05-08T10:56:15.413Z,7
2023-05-08T10:57:23.961Z,8.2
2023-05-08T10:58:32.317Z,8.2
2023-05-08T10:59:40.615Z,8.2
2023-05-08T11:00:49.132Z,7.6
2023-05-08T11:01:57.469Z,7.6
2023-05-08T11:03:06.218Z,7.6
2023-05-08T11:04:14.310Z,7.6
2023-05-08T11:05:22.575Z,7.6
2023-05-08T11:06:30.903Z,7.6
2023-05-08T11:07:39.410Z,8.3
2023-05-08T11:08:47.771Z,8.3
2023-05-08T11:09:56.092Z,8.3
2023-05-08T11:11:04.588Z,7.6
2023-05-08T11:12:12.913Z,7.6
2023-05-08T11:13:21.263Z,7.6
2023-05-08T11:14:29.803Z,7.7
2023-05-08T11:15:38.160Z,7.7
2023-05-08T11:16:46.545Z,7.7
2023-05-08T11:17:55.047Z,7.7
2023-05-08T11:19:03.325Z,7.7
2023-05-08T11:20:11.718Z,7.7
2023-05-08T11:21:20.169Z,7.4
2023-05-08T11:22:28.487Z,7.4
2023-05-08T11:23:36.789Z,7.4
2023-05-08T11:24:45.339Z,6.9
2023-05-08T11:25:53.686Z,6.9
2023-05-08T11:27:01.994Z,6.9
2023-05-08T11:28:10.533Z,6.6
2023-05-08T11:29:18.830Z,6.6
2023-05-08T11:30:27.158Z,6.6
2023-05-08T11:31:35.751Z,6.3
2023-05-08T11:32:44.072Z,6.3
2023-05-08T11:33:52.346Z,6.3
2023-05-08T11:35:00.842Z,6.5
2023-05-08T11:36:09.168Z,6.5
2023-05-08T11:37:18.249Z,6.5
2023-05-08T11:38:26.786Z,4.9
2023-05-08T11:39:35.103Z,4.9
2023-05-08T11:40:43.443Z,4.9
2023-05-08T11:41:52.004Z,5.2
2023-05-08T11:43:00.316Z,5.2
2023-05-08T11:44:08.674Z,5.2
2023-05-08T11:45:17.221Z,4.6
2023-05-08T11:46:25.567Z,4.6
2023-05-08T11:47:33.891Z,4.6
2023-05-08T11:48:42.434Z,4.9
2023-05-08T11:49:50.761Z,4.9
2023-05-08T11:50:59.074Z,4.9
2023-05-08T11:52:07.638Z,4.4
2023-05-08T11:53:15.978Z,4.4
2023-05-08T11:54:24.327Z,4.4
2023-05-08T11:55:32.854Z,4.5
2023-05-08T11:56:41.182Z,4.5
2023-05-08T11:57:49.524Z,4.5
2023-05-08T11:58:58.076Z,4.5
2023-05-08T12:00:06.424Z,4.5
2023-05-08T12:01:14.760Z,4.5
2023-05-08T12:02:23.343Z,4.8
2023-05-08T12:03:31.695Z,4.8
2023-05-08T12:04:39.943Z,4.8
2023-05-08T12:05:48.462Z,5.5
2023-05-08T12:06:56.770Z,5.5
2023-05-08T12:08:05.097Z,5.5
2023-05-08T12:09:13.691Z,5.2
2023-05-08T12:10:21.958Z,5.2
2023-05-08T12:11:30.298Z,5.2
2023-05-08T12:12:38.912Z,4.9
2023-05-08T12:13:47.171Z,4.9
2023-05-08T12:14:55.467Z,4.9
2023-05-08T12:16:03.985Z,4.5
2023-05-08T12:17:12.352Z,4.5
2023-05-08T12:18:20.641Z,4.5
2023-05-08T12:19:29.171Z,3.9
2023-05-08T12:20:37.490Z,3.9
2023-05-08T12:21:45.817Z,3.9
2023-05-08T12:22:54.351Z,4.1
2023-05-08T12:24:02.706Z,4.1
2023-05-08T12:25:11.151Z,4.1
2023-05-08T12:26:19.537Z,4.9
2023-05-08T12:27:27.859Z,4.9
2023-05-08T12:28:36.187Z,4.9
2023-05-08T12:29:44.751Z,4.6
2023-05-08T12:30:53.065Z,4.6
2023-05-08T12:32:01.357Z,4.6
2023-05-08T12:33:10.059Z,4.6
2023-05-08T12:34:18.230Z,4.6
2023-05-08T12:35:26.605Z,4.6
2023-05-08T12:36:35.120Z,4.4
2023-05-08T12:37:43.450Z,4.4
2023-05-08T12:38:51.779Z,4.4
2023-05-08T12:40:00.333Z,4.6
2023-05-08T12:41:08.668Z,4.6
2023-05-08T12:42:16.960Z,4.6
2023-05-08T12:43:25.514Z,4.6
2023-05-08T12:44:33.839Z,4.6
2023-05-08T12:45:42.327Z,4.6
2023-05-08T12:46:50.768Z,4.9
2023-05-08T12:47:59.102Z,4.9
2023-05-08T12:49:07.356Z,4.9
2023-05-08T12:50:16.124Z,4.7
2023-05-08T12:51:24.473Z,4.7
2023-05-08T12:52:32.765Z,4.7
2023-05-08T12:53:41.285Z,4.6
2023-05-08T12:54:49.627Z,4.6
2023-05-08T12:55:57.930Z,4.6
2023-05-08T12:57:06.457Z,5.4
2023-05-08T12:58:15.485Z,5.4
2023-05-08T12:59:23.206Z,5.4
2023-05-08T13:00:31.747Z,4.7
2023-05-08T13:01:40.199Z,4.7
2023-05-08T13:02:49.647Z,4.7
2023-05-08T13:04:01.968Z,4.1
2023-05-08T13:05:05.276Z,4.1
2023-05-08T13:06:13.626Z,4.1
2023-05-08T13:07:22.186Z,4.1
2023-05-08T13:08:30.484Z,4.1
2023-05-08T13:09:38.849Z,4.1
2023-05-08T13:10:47.437Z,3.7
2023-05-08T13:11:55.728Z,3.7
2023-05-08T13:13:04.174Z,3.7
2023-05-08T13:14:12.665Z,3.5
2023-05-08T13:15:21.023Z,3.5
2023-05-08T13:16:29.456Z,3.5
2023-05-08T13:17:38.145Z,4
2023-05-08T13:18:46.281Z,4
2023-05-08T13:19:54.610Z,4
2023-05-08T13:21:03.150Z,3.3
2023-05-08T13:22:11.473Z,3.3
2023-05-08T13:23:19.803Z,3.3
2023-05-08T13:24:28.394Z,3.1
2023-05-08T13:25:36.753Z,3.1
2023-05-08T13:26:45.094Z,3.1
2023-05-08T13:27:53.649Z,2.7
2023-05-08T13:29:01.973Z,2.7
2023-05-08T13:30:10.301Z,2.7
2023-05-08T13:31:18.884Z,3
2023-05-08T13:32:27.237Z,3
2023-05-08T13:33:35.692Z,3
2023-05-08T13:34:49.556Z,2.7
2023-05-08T13:35:52.447Z,2.7
2023-05-08T13:37:00.793Z,2.7
2023-05-08T13:38:09.374Z,2.7
2023-05-08T13:39:17.686Z,2.7
2023-05-08T13:40:26.048Z,2.7
2023-05-08T13:41:34.615Z,2.6
2023-05-08T13:42:43.292Z,2.6
2023-05-08T13:43:51.629Z,2.6
2023-05-08T13:45:00.151Z,2.7
2023-05-08T13:46:08.487Z,2.7
2023-05-08T13:47:16.827Z,2.7
2023-05-08T13:48:25.349Z,2.7
2023-05-08T13:49:33.851Z,2.7
2023-05-08T13:50:42.030Z,2.7
2023-05-08T13:51:55.029Z,2.7
2023-05-08T13:52:58.906Z,2.7
2023-05-08T13:54:07.219Z,2.7
2023-05-08T13:55:15.895Z,2.3
2023-05-08T13:56:24.120Z,2.3
2023-05-08T13:57:32.444Z,2.3
2023-05-08T13:58:40.972Z,2.8
2023-05-08T13:59:49.308Z,2.8
2023-05-08T14:00:57.663Z,2.8
2023-05-08T14:02:06.233Z,2.9
2023-05-08T14:03:14.616Z,2.9
2023-05-08T14:04:22.843Z,2.9
2023-05-08T14:05:31.576Z,2.4
2023-05-08T14:06:39.741Z,2.4
2023-05-08T14:07:48.062Z,2.4
2023-05-08T14:08:57.260Z,2.3
2023-05-08T14:10:04.979Z,2.3
2023-05-08T14:11:13.285Z,2.3
2023-05-08T14:12:21.793Z,3.1
2023-05-08T14:13:30.196Z,3.1
2023-05-08T14:14:38.443Z,3.1
2023-05-08T14:15:47.027Z,2.7
2023-05-08T14:16:55.377Z,2.7
2023-05-08T14:18:03.730Z,2.7
2023-05-08T14:19:12.297Z,2.4
2023-05-08T14:20:20.665Z,2.4
2023-05-08T14:21:29.115Z,2.4
2023-05-08T14:22:37.542Z,2.6
2023-05-08T14:23:45.861Z,2.6
2023-05-08T14:24:54.236Z,2.6
2023-05-08T14:26:02.763Z,2.4
2023-05-08T14:27:11.092Z,2.4
2023-05-08T14:28:19.394Z,2.4
2023-05-08T14:29:27.934Z,2.4
2023-05-08T14:30:36.242Z,2.4
2023-05-08T14:31:44.602Z,2.4
2023-05-08T14:32:53.177Z,2.7
2023-05-08T14:34:01.490Z,2.7
2023-05-08T14:35:09.835Z,2.7
2023-05-08T14:36:18.356Z,2.7
2023-05-08T14:37:26.815Z,2.7
2023-05-08T14:38:35.050Z,2.7
2023-05-08T14:39:43.569Z,2.5
2023-05-08T14:40:51.893Z,2.5
2023-05-08T14:43:08.811Z,2.5
2023-05-08T14:44:17.131Z,2.5
2023-05-08T14:45:25.486Z,2.5
2023-05-08T14:46:34.036Z,2.7
2023-05-08T14:47:42.342Z,2.7
2023-05-08T14:48:50.678Z,2.7
2023-05-08T14:49:59.216Z,2.7
2023-05-08T14:51:07.539Z,2.7
2023-05-08T14:52:15.892Z,2.7
2023-05-08T14:53:24.709Z,3.2
2023-05-08T14:54:32.904Z,3.2
2023-05-08T14:55:41.299Z,3.2
2023-05-08T14:56:49.634Z,3.2
2023-05-08T14:57:57.935Z,3.2
2023-05-08T14:59:06.300Z,3.2
2023-05-08T15:00:15.018Z,3.4
2023-05-08T15:01:23.181Z,3.4
2023-05-08T15:02:31.578Z,3.4
2023-05-08T15:03:40.113Z,3.2
2023-05-08T15:04:48.348Z,3.2
2023-05-08T15:05:56.689Z,3.2
2023-05-08T15:07:05.237Z,3
2023-05-08T15:08:13.569Z,3
2023-05-08T15:09:22.019Z,3
2023-05-08T15:10:30.425Z,2.5
2023-05-08T15:11:38.777Z,2.5
2023-05-08T15:45:22.628Z,0
2023-05-08T15:46:30.820Z,0
2023-05-08T15:47:39.200Z,0
2023-05-08T15:48:48.181Z,2.6
2023-05-08T15:49:56.033Z,2.6
2023-05-08T15:51:04.393Z,2.6
2023-05-08T15:52:12.923Z,2.2
2023-05-08T15:53:21.247Z,2.2
2023-05-08T15:54:29.586Z,2.2
2023-05-08T15:55:38.118Z,2.3
2023-05-08T15:56:46.452Z,2.3
2023-05-08T15:57:54.748Z,2.3
2023-05-08T15:59:03.290Z,2.2
2023-05-08T16:00:11.657Z,2.2
2023-05-08T16:01:20.109Z,2.2
2023-05-08T16:02:28.547Z,1.8